sensor_id;sensor_type;location;lat;lon;timestamp;P1;durP1;ratioP1;P2;durP2;ratioP2
19509;SDS011;9896;42.486;26.506;2022-07-29T00:00:59;6.37;;;5.37;;
19509;SDS011;9896;42.486;26.506;2022-07-29T00:03:25;8.97;;;5.33;;
19509;SDS011;9896;42.486;26.506;2022-07-29T00:05:50;7.90;;;5.33;;
19509;SDS011;9896;42.486;26.506;2022-07-29T00:08:18;10.30;;;5.40;;
19509;SDS011;9896;42.486;26.506;2022-07-29T00:10:44;12.40;;;5.83;;
19509;SDS011;9896;42.486;26.506;2022-07-29T00:13:09;15.03;;;5.20;;
19509;SDS011;9896;42.486;26.506;2022-07-29T00:15:35;9.83;;;4.83;;
19509;SDS011;9896;42.486;26.506;2022-07-29T00:18:00;9.20;;;4.70;;
19509;SDS011;9896;42.486;26.506;2022-07-29T00:20:26;9.50;;;4.80;;
19509;SDS011;9896;42.486;26.506;2022-07-29T00:22:51;9.70;;;5.10;;
19509;SDS011;9896;42.486;26.506;2022-07-29T00:25:18;8.50;;;5.20;;
19509;SDS011;9896;42.486;26.506;2022-07-29T00:27:44;7.43;;;5.17;;
19509;SDS011;9896;42.486;26.506;2022-07-29T00:30:11;9.67;;;5.30;;
19509;SDS011;9896;42.486;26.506;2022-07-29T00:32:37;8.63;;;4.93;;
19509;SDS011;9896;42.486;26.506;2022-07-29T00:35:02;9.40;;;5.17;;
19509;SDS011;9896;42.486;26.506;2022-07-29T00:37:47;7.03;;;5.00;;
19509;SDS011;9896;42.486;26.506;2022-07-29T00:40:13;10.73;;;6.60;;
19509;SDS011;9896;42.486;26.506;2022-07-29T00:42:42;16.47;;;6.73;;
19509;SDS011;9896;42.486;26.506;2022-07-29T00:45:12;10.80;;;7.27;;
19509;SDS011;9896;42.486;26.506;2022-07-29T00:47:38;14.63;;;7.60;;
19509;SDS011;9896;42.486;26.506;2022-07-29T00:50:04;14.90;;;8.77;;
19509;SDS011;9896;42.486;26.506;2022-07-29T00:52:31;15.13;;;8.13;;
19509;SDS011;9896;42.486;26.506;2022-07-29T00:54:58;15.90;;;7.83;;
19509;SDS011;9896;42.486;26.506;2022-07-29T00:57:25;16.33;;;7.33;;
19509;SDS011;9896;42.486;26.506;2022-07-29T00:59:50;12.87;;;5.87;;
19509;SDS011;9896;42.486;26.506;2022-07-29T01:02:16;10.93;;;6.20;;
19509;SDS011;9896;42.486;26.506;2022-07-29T01:04:41;6.93;;;5.30;;
19509;SDS011;9896;42.486;26.506;2022-07-29T01:07:07;8.23;;;4.70;;
19509;SDS011;9896;42.486;26.506;2022-07-29T01:09:33;8.07;;;4.23;;
19509;SDS011;9896;42.486;26.506;2022-07-29T01:12:00;5.30;;;4.03;;
19509;SDS011;9896;42.486;26.506;2022-07-29T01:14:27;8.07;;;4.53;;
19509;SDS011;9896;42.486;26.506;2022-07-29T01:17:14;4.70;;;4.30;;
19509;SDS011;9896;42.486;26.506;2022-07-29T01:22:35;5.30;;;4.07;;
19509;SDS011;9896;42.486;26.506;2022-07-29T01:25:10;6.17;;;4.37;;
19509;SDS011;9896;42.486;26.506;2022-07-29T01:27:56;6.20;;;4.53;;
19509;SDS011;9896;42.486;26.506;2022-07-29T01:30:46;7.60;;;5.20;;
19509;SDS011;9896;42.486;26.506;2022-07-29T01:33:15;12.47;;;5.87;;
19509;SDS011;9896;42.486;26.506;2022-07-29T01:36:01;11.60;;;5.37;;
19509;SDS011;9896;42.486;26.506;2022-07-29T01:38:34;6.60;;;5.07;;
19509;SDS011;9896;42.486;26.506;2022-07-29T01:41:05;7.87;;;4.90;;
19509;SDS011;9896;42.486;26.506;2022-07-29T01:46:52;7.60;;;5.17;;
19509;SDS011;9896;42.486;26.506;2022-07-29T01:49:21;8.23;;;5.60;;
19509;SDS011;9896;42.486;26.506;2022-07-29T01:52:03;14.33;;;5.77;;
19509;SDS011;9896;42.486;26.506;2022-07-29T01:54:35;7.40;;;5.17;;
19509;SDS011;9896;42.486;26.506;2022-07-29T01:57:08;11.33;;;5.57;;
19509;SDS011;9896;42.486;26.506;2022-07-29T01:59:36;9.87;;;6.00;;
19509;SDS011;9896;42.486;26.506;2022-07-29T02:02:03;7.30;;;5.40;;
19509;SDS011;9896;42.486;26.506;2022-07-29T02:04:33;6.90;;;5.67;;
19509;SDS011;9896;42.486;26.506;2022-07-29T02:07:02;10.93;;;5.53;;
19509;SDS011;9896;42.486;26.506;2022-07-29T02:09:31;7.10;;;5.13;;
19509;SDS011;9896;42.486;26.506;2022-07-29T02:12:00;9.97;;;5.40;;
19509;SDS011;9896;42.486;26.506;2022-07-29T02:14:29;5.87;;;4.63;;
19509;SDS011;9896;42.486;26.506;2022-07-29T02:17:07;7.90;;;5.10;;
19509;SDS011;9896;42.486;26.506;2022-07-29T02:19:33;5.77;;;4.87;;
19509;SDS011;9896;42.486;26.506;2022-07-29T02:22:02;7.57;;;4.83;;
19509;SDS011;9896;42.486;26.506;2022-07-29T02:24:30;5.90;;;5.23;;
19509;SDS011;9896;42.486;26.506;2022-07-29T02:26:56;9.77;;;5.20;;
19509;SDS011;9896;42.486;26.506;2022-07-29T02:29:24;7.87;;;5.37;;
19509;SDS011;9896;42.486;26.506;2022-07-29T02:31:53;7.53;;;5.20;;
19509;SDS011;9896;42.486;26.506;2022-07-29T02:34:21;6.83;;;5.50;;
19509;SDS011;9896;42.486;26.506;2022-07-29T02:36:48;6.80;;;5.93;;
19509;SDS011;9896;42.486;26.506;2022-07-29T02:39:15;8.33;;;5.70;;
19509;SDS011;9896;42.486;26.506;2022-07-29T02:41:46;5.50;;;4.90;;
19509;SDS011;9896;42.486;26.506;2022-07-29T02:44:15;6.70;;;5.57;;
19509;SDS011;9896;42.486;26.506;2022-07-29T02:46:45;8.27;;;5.70;;
19509;SDS011;9896;42.486;26.506;2022-07-29T02:51:53;8.20;;;5.70;;
19509;SDS011;9896;42.486;26.506;2022-07-29T02:57:27;11.17;;;6.40;;
19509;SDS011;9896;42.486;26.506;2022-07-29T02:59:57;11.90;;;6.50;;
19509;SDS011;9896;42.486;26.506;2022-07-29T03:02:27;9.37;;;6.67;;
19509;SDS011;9896;42.486;26.506;2022-07-29T03:04:55;12.37;;;7.00;;
19509;SDS011;9896;42.486;26.506;2022-07-29T03:07:23;11.07;;;6.60;;
19509;SDS011;9896;42.486;26.506;2022-07-29T03:09:50;10.90;;;7.50;;
19509;SDS011;9896;42.486;26.506;2022-07-29T03:12:16;14.30;;;7.70;;
19509;SDS011;9896;42.486;26.506;2022-07-29T03:14:43;13.97;;;6.97;;
19509;SDS011;9896;42.486;26.506;2022-07-29T03:17:09;8.43;;;6.07;;
19509;SDS011;9896;42.486;26.506;2022-07-29T03:19:35;14.27;;;6.00;;
19509;SDS011;9896;42.486;26.506;2022-07-29T03:22:00;11.83;;;6.90;;
19509;SDS011;9896;42.486;26.506;2022-07-29T03:24:27;6.83;;;5.67;;
19509;SDS011;9896;42.486;26.506;2022-07-29T03:26:56;10.17;;;6.17;;
19509;SDS011;9896;42.486;26.506;2022-07-29T03:29:22;11.00;;;6.33;;
19509;SDS011;9896;42.486;26.506;2022-07-29T03:31:48;7.80;;;6.47;;
19509;SDS011;9896;42.486;26.506;2022-07-29T03:34:14;9.03;;;6.97;;
19509;SDS011;9896;42.486;26.506;2022-07-29T03:36:39;9.50;;;5.77;;
19509;SDS011;9896;42.486;26.506;2022-07-29T03:39:05;10.07;;;6.03;;
19509;SDS011;9896;42.486;26.506;2022-07-29T03:41:31;10.87;;;7.10;;
19509;SDS011;9896;42.486;26.506;2022-07-29T03:43:58;10.33;;;6.73;;
19509;SDS011;9896;42.486;26.506;2022-07-29T03:46:25;9.20;;;6.23;;
19509;SDS011;9896;42.486;26.506;2022-07-29T03:48:55;9.77;;;6.57;;
19509;SDS011;9896;42.486;26.506;2022-07-29T03:51:23;10.63;;;6.47;;
19509;SDS011;9896;42.486;26.506;2022-07-29T03:53:50;11.03;;;6.50;;
19509;SDS011;9896;42.486;26.506;2022-07-29T03:56:15;11.17;;;6.53;;
19509;SDS011;9896;42.486;26.506;2022-07-29T03:58:45;9.87;;;6.40;;
19509;SDS011;9896;42.486;26.506;2022-07-29T04:01:11;9.57;;;6.80;;
19509;SDS011;9896;42.486;26.506;2022-07-29T04:03:38;11.37;;;7.13;;
19509;SDS011;9896;42.486;26.506;2022-07-29T04:06:05;8.27;;;6.37;;
19509;SDS011;9896;42.486;26.506;2022-07-29T04:08:32;11.30;;;6.67;;
19509;SDS011;9896;42.486;26.506;2022-07-29T04:10:58;9.73;;;6.67;;
19509;SDS011;9896;42.486;26.506;2022-07-29T04:13:24;12.03;;;6.37;;
19509;SDS011;9896;42.486;26.506;2022-07-29T04:15:50;10.13;;;6.63;;
19509;SDS011;9896;42.486;26.506;2022-07-29T04:18:16;15.40;;;7.67;;
19509;SDS011;9896;42.486;26.506;2022-07-29T04:20:41;8.57;;;6.23;;
19509;SDS011;9896;42.486;26.506;2022-07-29T04:23:07;10.93;;;6.20;;
19509;SDS011;9896;42.486;26.506;2022-07-29T04:25:32;10.90;;;6.30;;
19509;SDS011;9896;42.486;26.506;2022-07-29T04:27:58;10.43;;;7.10;;
19509;SDS011;9896;42.486;26.506;2022-07-29T04:30:26;12.00;;;6.37;;
19509;SDS011;9896;42.486;26.506;2022-07-29T04:32:52;12.43;;;7.70;;
19509;SDS011;9896;42.486;26.506;2022-07-29T04:35:18;12.83;;;7.93;;
19509;SDS011;9896;42.486;26.506;2022-07-29T04:37:44;10.00;;;7.13;;
19509;SDS011;9896;42.486;26.506;2022-07-29T04:40:10;12.13;;;7.40;;
19509;SDS011;9896;42.486;26.506;2022-07-29T04:42:37;8.63;;;6.27;;
19509;SDS011;9896;42.486;26.506;2022-07-29T04:45:02;16.23;;;6.10;;
19509;SDS011;9896;42.486;26.506;2022-07-29T04:47:28;23.53;;;10.07;;
19509;SDS011;9896;42.486;26.506;2022-07-29T04:49:54;11.33;;;6.00;;
19509;SDS011;9896;42.486;26.506;2022-07-29T04:52:20;10.20;;;6.37;;
19509;SDS011;9896;42.486;26.506;2022-07-29T04:54:45;17.43;;;6.80;;
19509;SDS011;9896;42.486;26.506;2022-07-29T04:57:13;8.13;;;6.20;;
19509;SDS011;9896;42.486;26.506;2022-07-29T04:59:39;8.53;;;6.23;;
19509;SDS011;9896;42.486;26.506;2022-07-29T05:02:04;13.67;;;6.90;;
19509;SDS011;9896;42.486;26.506;2022-07-29T05:04:30;11.80;;;5.90;;
19509;SDS011;9896;42.486;26.506;2022-07-29T05:06:55;13.00;;;5.00;;
19509;SDS011;9896;42.486;26.506;2022-07-29T05:09:21;16.07;;;6.00;;
19509;SDS011;9896;42.486;26.506;2022-07-29T05:11:46;13.87;;;7.10;;
19509;SDS011;9896;42.486;26.506;2022-07-29T05:14:12;14.27;;;6.10;;
19509;SDS011;9896;42.486;26.506;2022-07-29T05:16:38;10.00;;;6.07;;
19509;SDS011;9896;42.486;26.506;2022-07-29T05:19:05;9.67;;;6.20;;
19509;SDS011;9896;42.486;26.506;2022-07-29T05:21:30;15.00;;;6.70;;
19509;SDS011;9896;42.486;26.506;2022-07-29T05:23:56;12.87;;;7.03;;
19509;SDS011;9896;42.486;26.506;2022-07-29T05:26:22;12.70;;;9.50;;
19509;SDS011;9896;42.486;26.506;2022-07-29T05:28:47;10.70;;;6.40;;
19509;SDS011;9896;42.486;26.506;2022-07-29T05:31:13;9.83;;;6.57;;
19509;SDS011;9896;42.486;26.506;2022-07-29T05:33:39;12.13;;;6.33;;
19509;SDS011;9896;42.486;26.506;2022-07-29T05:36:06;10.30;;;6.90;;
19509;SDS011;9896;42.486;26.506;2022-07-29T05:38:32;12.27;;;5.90;;
19509;SDS011;9896;42.486;26.506;2022-07-29T05:40:58;13.23;;;5.90;;
19509;SDS011;9896;42.486;26.506;2022-07-29T05:43:25;14.90;;;6.30;;
19509;SDS011;9896;42.486;26.506;2022-07-29T05:45:51;9.50;;;6.10;;
19509;SDS011;9896;42.486;26.506;2022-07-29T05:48:17;11.10;;;6.10;;
19509;SDS011;9896;42.486;26.506;2022-07-29T05:50:42;9.47;;;5.67;;
19509;SDS011;9896;42.486;26.506;2022-07-29T05:53:08;18.83;;;7.33;;
19509;SDS011;9896;42.486;26.506;2022-07-29T05:55:33;14.10;;;6.57;;
19509;SDS011;9896;42.486;26.506;2022-07-29T05:57:59;8.70;;;6.53;;
19509;SDS011;9896;42.486;26.506;2022-07-29T06:00:26;12.77;;;6.27;;
19509;SDS011;9896;42.486;26.506;2022-07-29T06:02:51;14.07;;;6.00;;
19509;SDS011;9896;42.486;26.506;2022-07-29T06:05:17;14.23;;;6.43;;
19509;SDS011;9896;42.486;26.506;2022-07-29T06:07:42;9.37;;;5.90;;
19509;SDS011;9896;42.486;26.506;2022-07-29T06:10:08;15.83;;;7.77;;
19509;SDS011;9896;42.486;26.506;2022-07-29T06:12:34;7.67;;;5.77;;
19509;SDS011;9896;42.486;26.506;2022-07-29T06:14:59;8.63;;;5.27;;
19509;SDS011;9896;42.486;26.506;2022-07-29T06:17:25;12.30;;;5.20;;
19509;SDS011;9896;42.486;26.506;2022-07-29T06:19:50;10.57;;;5.72;;
19509;SDS011;9896;42.486;26.506;2022-07-29T06:22:16;18.33;;;5.78;;
19509;SDS011;9896;42.486;26.506;2022-07-29T06:24:42;10.77;;;5.40;;
19509;SDS011;9896;42.486;26.506;2022-07-29T06:27:09;8.35;;;4.68;;
19509;SDS011;9896;42.486;26.506;2022-07-29T06:29:35;6.57;;;4.50;;
19509;SDS011;9896;42.486;26.506;2022-07-29T06:32:01;6.53;;;4.00;;
19509;SDS011;9896;42.486;26.506;2022-07-29T06:34:27;6.03;;;4.00;;
19509;SDS011;9896;42.486;26.506;2022-07-29T06:36:52;8.48;;;3.63;;
19509;SDS011;9896;42.486;26.506;2022-07-29T06:39:18;4.72;;;3.75;;
19509;SDS011;9896;42.486;26.506;2022-07-29T06:41:46;8.73;;;4.30;;
19509;SDS011;9896;42.486;26.506;2022-07-29T06:44:13;8.68;;;4.03;;
19509;SDS011;9896;42.486;26.506;2022-07-29T06:46:39;7.43;;;3.88;;
19509;SDS011;9896;42.486;26.506;2022-07-29T06:49:05;4.32;;;3.88;;
19509;SDS011;9896;42.486;26.506;2022-07-29T06:51:30;6.18;;;3.20;;
19509;SDS011;9896;42.486;26.506;2022-07-29T06:53:56;4.22;;;3.58;;
19509;SDS011;9896;42.486;26.506;2022-07-29T06:56:23;4.05;;;3.65;;
19509;SDS011;9896;42.486;26.506;2022-07-29T06:58:49;7.40;;;3.88;;
19509;SDS011;9896;42.486;26.506;2022-07-29T07:01:16;6.15;;;3.58;;
19509;SDS011;9896;42.486;26.506;2022-07-29T07:03:41;8.57;;;3.83;;
19509;SDS011;9896;42.486;26.506;2022-07-29T07:06:07;3.80;;;3.47;;
19509;SDS011;9896;42.486;26.506;2022-07-29T07:08:33;5.35;;;3.63;;
19509;SDS011;9896;42.486;26.506;2022-07-29T07:10:58;7.38;;;4.22;;
19509;SDS011;9896;42.486;26.506;2022-07-29T07:13:24;6.10;;;3.80;;
19509;SDS011;9896;42.486;26.506;2022-07-29T07:15:50;9.70;;;4.30;;
19509;SDS011;9896;42.486;26.506;2022-07-29T07:18:17;11.93;;;5.05;;
19509;SDS011;9896;42.486;26.506;2022-07-29T07:20:43;8.38;;;3.70;;
19509;SDS011;9896;42.486;26.506;2022-07-29T07:23:09;7.80;;;4.03;;
19509;SDS011;9896;42.486;26.506;2022-07-29T07:25:35;6.72;;;4.10;;
19509;SDS011;9896;42.486;26.506;2022-07-29T07:28:01;5.47;;;3.85;;
19509;SDS011;9896;42.486;26.506;2022-07-29T07:30:28;4.40;;;4.00;;
19509;SDS011;9896;42.486;26.506;2022-07-29T07:32:54;5.88;;;3.50;;
19509;SDS011;9896;42.486;26.506;2022-07-29T07:35:20;6.95;;;3.95;;
19509;SDS011;9896;42.486;26.506;2022-07-29T07:37:46;12.07;;;4.47;;
19509;SDS011;9896;42.486;26.506;2022-07-29T07:40:12;9.23;;;4.10;;
19509;SDS011;9896;42.486;26.506;2022-07-29T07:42:38;8.30;;;5.10;;
19509;SDS011;9896;42.486;26.506;2022-07-29T07:45:04;6.95;;;3.97;;
19509;SDS011;9896;42.486;26.506;2022-07-29T07:47:31;4.18;;;3.60;;
19509;SDS011;9896;42.486;26.506;2022-07-29T07:49:57;5.10;;;3.90;;
19509;SDS011;9896;42.486;26.506;2022-07-29T07:52:23;6.28;;;3.97;;
19509;SDS011;9896;42.486;26.506;2022-07-29T07:54:48;5.90;;;3.78;;
19509;SDS011;9896;42.486;26.506;2022-07-29T07:57:14;9.57;;;4.38;;
19509;SDS011;9896;42.486;26.506;2022-07-29T07:59:40;8.00;;;5.57;;
19509;SDS011;9896;42.486;26.506;2022-07-29T08:02:07;12.25;;;5.03;;
19509;SDS011;9896;42.486;26.506;2022-07-29T08:04:33;12.40;;;4.20;;
19509;SDS011;9896;42.486;26.506;2022-07-29T08:06:58;5.90;;;4.10;;
19509;SDS011;9896;42.486;26.506;2022-07-29T08:09:25;5.30;;;3.50;;
19509;SDS011;9896;42.486;26.506;2022-07-29T08:11:51;6.82;;;4.10;;
19509;SDS011;9896;42.486;26.506;2022-07-29T08:14:17;6.45;;;4.15;;
19509;SDS011;9896;42.486;26.506;2022-07-29T08:16:43;7.28;;;3.97;;
19509;SDS011;9896;42.486;26.506;2022-07-29T08:19:09;5.65;;;3.88;;
19509;SDS011;9896;42.486;26.506;2022-07-29T08:21:35;7.15;;;3.75;;
19509;SDS011;9896;42.486;26.506;2022-07-29T08:24:00;7.93;;;3.85;;
19509;SDS011;9896;42.486;26.506;2022-07-29T08:26:45;5.03;;;3.40;;
19509;SDS011;9896;42.486;26.506;2022-07-29T08:29:11;5.38;;;3.83;;
19509;SDS011;9896;42.486;26.506;2022-07-29T08:31:37;8.02;;;3.90;;
19509;SDS011;9896;42.486;26.506;2022-07-29T08:34:03;7.32;;;4.03;;
19509;SDS011;9896;42.486;26.506;2022-07-29T08:36:30;11.10;;;3.47;;
19509;SDS011;9896;42.486;26.506;2022-07-29T08:38:55;4.20;;;3.40;;
19509;SDS011;9896;42.486;26.506;2022-07-29T08:41:21;10.40;;;3.75;;
19509;SDS011;9896;42.486;26.506;2022-07-29T08:43:47;7.22;;;3.60;;
19509;SDS011;9896;42.486;26.506;2022-07-29T08:46:14;4.85;;;3.60;;
19509;SDS011;9896;42.486;26.506;2022-07-29T08:48:40;8.95;;;3.80;;
19509;SDS011;9896;42.486;26.506;2022-07-29T08:51:06;6.78;;;3.60;;
19509;SDS011;9896;42.486;26.506;2022-07-29T08:53:32;5.90;;;4.22;;
19509;SDS011;9896;42.486;26.506;2022-07-29T08:55:58;6.55;;;3.50;;
19509;SDS011;9896;42.486;26.506;2022-07-29T08:58:25;3.90;;;3.60;;
19509;SDS011;9896;42.486;26.506;2022-07-29T09:00:53;10.38;;;3.38;;
19509;SDS011;9896;42.486;26.506;2022-07-29T09:03:20;5.72;;;3.30;;
19509;SDS011;9896;42.486;26.506;2022-07-29T09:05:48;6.40;;;3.00;;
19509;SDS011;9896;42.486;26.506;2022-07-29T09:08:14;5.22;;;3.28;;
19509;SDS011;9896;42.486;26.506;2022-07-29T09:10:40;5.63;;;3.10;;
19509;SDS011;9896;42.486;26.506;2022-07-29T09:13:06;6.20;;;4.07;;
19509;SDS011;9896;42.486;26.506;2022-07-29T09:15:31;10.23;;;3.45;;
19509;SDS011;9896;42.486;26.506;2022-07-29T09:17:57;4.75;;;3.40;;
19509;SDS011;9896;42.486;26.506;2022-07-29T09:20:27;6.50;;;3.72;;
19509;SDS011;9896;42.486;26.506;2022-07-29T09:23:13;3.75;;;2.97;;
19509;SDS011;9896;42.486;26.506;2022-07-29T09:25:39;5.45;;;3.33;;
19509;SDS011;9896;42.486;26.506;2022-07-29T09:28:10;4.13;;;3.20;;
19509;SDS011;9896;42.486;26.506;2022-07-29T09:30:52;10.32;;;3.50;;
19509;SDS011;9896;42.486;26.506;2022-07-29T09:33:20;7.20;;;3.55;;
19509;SDS011;9896;42.486;26.506;2022-07-29T09:35:57;5.20;;;3.22;;
19509;SDS011;9896;42.486;26.506;2022-07-29T09:38:24;6.32;;;3.50;;
19509;SDS011;9896;42.486;26.506;2022-07-29T09:40:56;7.50;;;3.40;;
19509;SDS011;9896;42.486;26.506;2022-07-29T09:43:24;9.18;;;3.65;;
19509;SDS011;9896;42.486;26.506;2022-07-29T09:45:49;11.23;;;3.60;;
19509;SDS011;9896;42.486;26.506;2022-07-29T09:50:45;8.80;;;3.60;;
19509;SDS011;9896;42.486;26.506;2022-07-29T09:53:29;4.38;;;3.60;;
19509;SDS011;9896;42.486;26.506;2022-07-29T09:55:55;6.05;;;3.80;;
19509;SDS011;9896;42.486;26.506;2022-07-29T09:58:22;11.82;;;4.13;;
19509;SDS011;9896;42.486;26.506;2022-07-29T10:00:48;5.28;;;3.55;;
19509;SDS011;9896;42.486;26.506;2022-07-29T10:03:15;5.57;;;3.35;;
19509;SDS011;9896;42.486;26.506;2022-07-29T10:05:42;6.97;;;3.53;;
19509;SDS011;9896;42.486;26.506;2022-07-29T10:08:09;6.15;;;3.40;;
19509;SDS011;9896;42.486;26.506;2022-07-29T10:10:39;6.82;;;3.22;;
19509;SDS011;9896;42.486;26.506;2022-07-29T10:13:09;3.97;;;3.58;;
19509;SDS011;9896;42.486;26.506;2022-07-29T10:15:37;7.57;;;3.03;;
19509;SDS011;9896;42.486;26.506;2022-07-29T10:18:06;6.57;;;3.70;;
19509;SDS011;9896;42.486;26.506;2022-07-29T10:20:33;5.15;;;3.45;;
19509;SDS011;9896;42.486;26.506;2022-07-29T10:23:00;11.13;;;3.47;;
19509;SDS011;9896;42.486;26.506;2022-07-29T10:25:27;3.88;;;3.40;;
19509;SDS011;9896;42.486;26.506;2022-07-29T10:27:53;5.68;;;3.28;;
19509;SDS011;9896;42.486;26.506;2022-07-29T10:30:20;5.03;;;3.28;;
19509;SDS011;9896;42.486;26.506;2022-07-29T10:33:07;4.43;;;3.10;;
19509;SDS011;9896;42.486;26.506;2022-07-29T10:44:35;6.13;;;3.63;;
19509;SDS011;9896;42.486;26.506;2022-07-29T10:47:05;6.68;;;3.50;;
19509;SDS011;9896;42.486;26.506;2022-07-29T10:49:32;6.22;;;3.63;;
19509;SDS011;9896;42.486;26.506;2022-07-29T11:07:39;3.92;;;3.13;;
19509;SDS011;9896;42.486;26.506;2022-07-29T11:10:25;8.65;;;3.42;;
19509;SDS011;9896;42.486;26.506;2022-07-29T11:12:51;4.72;;;3.10;;
19509;SDS011;9896;42.486;26.506;2022-07-29T11:15:20;4.30;;;3.25;;
19509;SDS011;9896;42.486;26.506;2022-07-29T11:23:25;4.68;;;3.22;;
19509;SDS011;9896;42.486;26.506;2022-07-29T11:26:16;4.25;;;3.13;;
19509;SDS011;9896;42.486;26.506;2022-07-29T11:34:20;5.68;;;3.75;;
19509;SDS011;9896;42.486;26.506;2022-07-29T11:39:40;13.70;;;4.03;;
19509;SDS011;9896;42.486;26.506;2022-07-29T11:47:42;5.88;;;3.65;;
19509;SDS011;9896;42.486;26.506;2022-07-29T11:50:13;10.20;;;4.38;;
19509;SDS011;9896;42.486;26.506;2022-07-29T11:52:42;6.57;;;3.80;;
19509;SDS011;9896;42.486;26.506;2022-07-29T11:55:14;9.05;;;4.47;;
19509;SDS011;9896;42.486;26.506;2022-07-29T11:58:05;4.88;;;3.42;;
19509;SDS011;9896;42.486;26.506;2022-07-29T12:00:32;4.43;;;2.97;;
19509;SDS011;9896;42.486;26.506;2022-07-29T12:03:00;4.43;;;3.65;;
19509;SDS011;9896;42.486;26.506;2022-07-29T12:05:33;7.82;;;4.53;;
19509;SDS011;9896;42.486;26.506;2022-07-29T12:08:12;4.75;;;3.25;;
19509;SDS011;9896;42.486;26.506;2022-07-29T12:10:39;10.82;;;3.35;;
19509;SDS011;9896;42.486;26.506;2022-07-29T12:13:06;3.75;;;3.30;;
19509;SDS011;9896;42.486;26.506;2022-07-29T12:15:32;4.75;;;3.50;;
19509;SDS011;9896;42.486;26.506;2022-07-29T12:17:58;8.50;;;3.35;;
19509;SDS011;9896;42.486;26.506;2022-07-29T12:20:25;8.18;;;3.33;;
19509;SDS011;9896;42.486;26.506;2022-07-29T12:22:52;4.57;;;3.45;;
19509;SDS011;9896;42.486;26.506;2022-07-29T12:25:19;6.13;;;3.50;;
19509;SDS011;9896;42.486;26.506;2022-07-29T12:27:44;6.15;;;2.92;;
19509;SDS011;9896;42.486;26.506;2022-07-29T12:30:11;8.48;;;3.08;;
19509;SDS011;9896;42.486;26.506;2022-07-29T12:32:40;4.25;;;2.80;;
19509;SDS011;9896;42.486;26.506;2022-07-29T12:35:10;3.47;;;2.88;;
19509;SDS011;9896;42.486;26.506;2022-07-29T12:37:39;3.05;;;2.72;;
19509;SDS011;9896;42.486;26.506;2022-07-29T12:40:07;9.70;;;3.63;;
19509;SDS011;9896;42.486;26.506;2022-07-29T12:42:36;8.50;;;3.60;;
19509;SDS011;9896;42.486;26.506;2022-07-29T12:45:02;6.85;;;3.55;;
19509;SDS011;9896;42.486;26.506;2022-07-29T12:47:29;7.65;;;3.40;;
19509;SDS011;9896;42.486;26.506;2022-07-29T12:50:10;5.65;;;3.10;;
19509;SDS011;9896;42.486;26.506;2022-07-29T12:52:42;5.47;;;2.90;;
19509;SDS011;9896;42.486;26.506;2022-07-29T12:55:08;7.35;;;3.45;;
19509;SDS011;9896;42.486;26.506;2022-07-29T12:57:47;5.15;;;2.95;;
19509;SDS011;9896;42.486;26.506;2022-07-29T13:00:15;12.68;;;3.80;;
19509;SDS011;9896;42.486;26.506;2022-07-29T13:02:46;5.55;;;2.78;;
19509;SDS011;9896;42.486;26.506;2022-07-29T13:05:20;6.63;;;2.80;;
19509;SDS011;9896;42.486;26.506;2022-07-29T13:07:45;5.95;;;3.33;;
19509;SDS011;9896;42.486;26.506;2022-07-29T13:10:15;6.22;;;3.38;;
19509;SDS011;9896;42.486;26.506;2022-07-29T13:13:01;5.38;;;2.83;;
19509;SDS011;9896;42.486;26.506;2022-07-29T13:15:38;6.55;;;2.88;;
19509;SDS011;9896;42.486;26.506;2022-07-29T13:18:25;4.45;;;3.03;;
19509;SDS011;9896;42.486;26.506;2022-07-29T13:21:09;4.80;;;2.90;;
19509;SDS011;9896;42.486;26.506;2022-07-29T13:23:39;6.65;;;3.47;;
19509;SDS011;9896;42.486;26.506;2022-07-29T13:26:05;10.80;;;2.95;;
19509;SDS011;9896;42.486;26.506;2022-07-29T13:28:36;9.35;;;3.28;;
19509;SDS011;9896;42.486;26.506;2022-07-29T13:31:01;9.48;;;3.05;;
19509;SDS011;9896;42.486;26.506;2022-07-29T13:33:27;5.78;;;2.60;;
19509;SDS011;9896;42.486;26.506;2022-07-29T13:35:53;7.47;;;3.40;;
19509;SDS011;9896;42.486;26.506;2022-07-29T13:38:18;7.88;;;2.70;;
19509;SDS011;9896;42.486;26.506;2022-07-29T13:40:44;6.55;;;3.40;;
19509;SDS011;9896;42.486;26.506;2022-07-29T13:43:10;6.05;;;2.90;;
19509;SDS011;9896;42.486;26.506;2022-07-29T13:45:35;4.22;;;3.20;;
19509;SDS011;9896;42.486;26.506;2022-07-29T13:48:01;3.13;;;2.72;;
19509;SDS011;9896;42.486;26.506;2022-07-29T13:50:27;10.75;;;3.30;;
19509;SDS011;9896;42.486;26.506;2022-07-29T13:52:52;6.72;;;3.00;;
19509;SDS011;9896;42.486;26.506;2022-07-29T13:55:18;5.22;;;3.00;;
19509;SDS011;9896;42.486;26.506;2022-07-29T13:57:44;5.40;;;2.90;;
19509;SDS011;9896;42.486;26.506;2022-07-29T14:00:10;10.27;;;3.30;;
19509;SDS011;9896;42.486;26.506;2022-07-29T14:02:36;4.20;;;2.67;;
19509;SDS011;9896;42.486;26.506;2022-07-29T14:05:03;6.13;;;2.78;;
19509;SDS011;9896;42.486;26.506;2022-07-29T14:07:30;7.72;;;2.58;;
19509;SDS011;9896;42.486;26.506;2022-07-29T14:09:55;5.85;;;2.83;;
19509;SDS011;9896;42.486;26.506;2022-07-29T14:12:21;4.55;;;2.90;;
19509;SDS011;9896;42.486;26.506;2022-07-29T14:14:47;6.85;;;2.85;;
19509;SDS011;9896;42.486;26.506;2022-07-29T14:17:13;7.50;;;3.30;;
19509;SDS011;9896;42.486;26.506;2022-07-29T14:19:40;6.13;;;3.30;;
19509;SDS011;9896;42.486;26.506;2022-07-29T14:22:05;5.78;;;2.90;;
19509;SDS011;9896;42.486;26.506;2022-07-29T14:24:32;6.03;;;3.45;;
19509;SDS011;9896;42.486;26.506;2022-07-29T14:26:58;3.33;;;3.00;;
19509;SDS011;9896;42.486;26.506;2022-07-29T14:29:23;6.78;;;2.70;;
19509;SDS011;9896;42.486;26.506;2022-07-29T14:31:49;11.25;;;3.50;;
19509;SDS011;9896;42.486;26.506;2022-07-29T14:34:14;5.07;;;2.97;;
19509;SDS011;9896;42.486;26.506;2022-07-29T14:36:40;9.85;;;3.63;;
19509;SDS011;9896;42.486;26.506;2022-07-29T14:39:06;5.53;;;2.88;;
19509;SDS011;9896;42.486;26.506;2022-07-29T14:41:32;5.88;;;3.00;;
19509;SDS011;9896;42.486;26.506;2022-07-29T14:43:57;6.57;;;3.40;;
19509;SDS011;9896;42.486;26.506;2022-07-29T14:46:25;4.60;;;3.25;;
19509;SDS011;9896;42.486;26.506;2022-07-29T14:48:51;3.08;;;2.72;;
19509;SDS011;9896;42.486;26.506;2022-07-29T14:51:17;4.07;;;3.10;;
19509;SDS011;9896;42.486;26.506;2022-07-29T14:53:42;5.68;;;3.03;;
19509;SDS011;9896;42.486;26.506;2022-07-29T14:56:08;6.15;;;3.25;;
19509;SDS011;9896;42.486;26.506;2022-07-29T14:58:34;8.20;;;3.17;;
19509;SDS011;9896;42.486;26.506;2022-07-29T15:01:00;5.63;;;3.30;;
19509;SDS011;9896;42.486;26.506;2022-07-29T15:03:27;3.50;;;3.10;;
19509;SDS011;9896;42.486;26.506;2022-07-29T15:05:55;6.55;;;3.10;;
19509;SDS011;9896;42.486;26.506;2022-07-29T15:08:21;4.82;;;3.13;;
19509;SDS011;9896;42.486;26.506;2022-07-29T15:10:47;5.35;;;2.85;;
19509;SDS011;9896;42.486;26.506;2022-07-29T15:13:12;6.95;;;2.95;;
19509;SDS011;9896;42.486;26.506;2022-07-29T15:15:38;9.38;;;3.20;;
19509;SDS011;9896;42.486;26.506;2022-07-29T15:18:04;6.88;;;3.25;;
19509;SDS011;9896;42.486;26.506;2022-07-29T15:20:29;6.10;;;3.22;;
19509;SDS011;9896;42.486;26.506;2022-07-29T15:22:55;7.22;;;3.63;;
19509;SDS011;9896;42.486;26.506;2022-07-29T15:25:22;3.53;;;3.10;;
19509;SDS011;9896;42.486;26.506;2022-07-29T15:27:48;7.45;;;2.95;;
19509;SDS011;9896;42.486;26.506;2022-07-29T15:30:13;4.30;;;2.90;;
19509;SDS011;9896;42.486;26.506;2022-07-29T15:32:42;5.72;;;2.83;;
19509;SDS011;9896;42.486;26.506;2022-07-29T15:35:08;3.63;;;3.13;;
19509;SDS011;9896;42.486;26.506;2022-07-29T15:37:35;6.80;;;3.47;;
19509;SDS011;9896;42.486;26.506;2022-07-29T15:40:01;3.70;;;2.90;;
19509;SDS011;9896;42.486;26.506;2022-07-29T15:42:26;6.13;;;3.35;;
19509;SDS011;9896;42.486;26.506;2022-07-29T15:44:52;4.18;;;2.58;;